createdAt,value
2022-09-27T00:01:56.655Z,18.11
2022-09-27T00:04:24.754Z,18.16
2022-09-27T00:06:55.394Z,18.14
2022-09-27T00:09:23.472Z,17.92
2022-09-27T00:11:52.547Z,17.92
2022-09-27T00:14:20.845Z,17.96
2022-09-27T00:16:50.141Z,17.94
2022-09-27T00:19:19.323Z,17.83
2022-09-27T00:21:48.067Z,17.88
2022-09-27T00:24:18.655Z,17.89
2022-09-27T00:26:47.214Z,17.87
2022-09-27T00:29:16.471Z,17.84
2022-09-27T00:31:44.764Z,17.88
2022-09-27T00:34:15.585Z,17.97
2022-09-27T00:36:43.588Z,18.03
2022-09-27T00:39:11.606Z,17.97
2022-09-27T00:41:41.305Z,17.97
2022-09-27T00:44:48.240Z,17.98
2022-09-27T00:47:19.627Z,17.97
2022-09-27T00:49:49.529Z,18.03
2022-09-27T00:52:18.383Z,17.90
2022-09-27T00:54:48.256Z,17.98
2022-09-27T00:57:17.661Z,17.95
2022-09-27T00:59:47.011Z,17.90
2022-09-27T01:02:16.187Z,17.94
2022-09-27T01:04:44.205Z,17.91
2022-09-27T01:07:12.159Z,17.86
2022-09-27T01:09:40.258Z,17.81
2022-09-27T01:12:10.446Z,17.76
2022-09-27T01:14:44.248Z,17.82
2022-09-27T01:17:20.299Z,17.71
2022-09-27T01:20:09.027Z,17.62
2022-09-27T01:22:37.778Z,17.70
2022-09-27T01:25:29.819Z,17.71
2022-09-27T01:28:14.861Z,17.76
2022-09-27T01:30:46.601Z,17.74
2022-09-27T01:33:25.126Z,17.83
2022-09-27T01:36:10.651Z,17.83
2022-09-27T01:38:44.326Z,17.79
2022-09-27T01:41:20.179Z,17.85
2022-09-27T01:44:00.652Z,17.88
2022-09-27T01:46:37.560Z,17.80
2022-09-27T01:49:19.407Z,17.69
2022-09-27T01:51:49.434Z,17.72
2022-09-27T01:54:21.239Z,17.76
2022-09-27T01:57:08.354Z,17.82
2022-09-27T01:59:44.010Z,17.83
2022-09-27T02:02:41.378Z,17.78
2022-09-27T02:05:30.859Z,17.79
2022-09-27T02:08:06.507Z,17.75
2022-09-27T02:10:39.359Z,17.71
2022-09-27T02:13:17.071Z,17.82
2022-09-27T02:15:50.750Z,17.80
2022-09-27T02:18:42.043Z,17.78
2022-09-27T02:21:10.141Z,17.69
2022-09-27T02:23:40.293Z,17.73
2022-09-27T02:26:14.852Z,17.76
2022-09-27T02:28:44.577Z,17.63
2022-09-27T02:31:24.017Z,17.74
2022-09-27T02:33:56.599Z,17.78
2022-09-27T02:36:27.391Z,17.79
2022-09-27T02:38:55.608Z,17.80
2022-09-27T02:41:24.543Z,17.87
2022-09-27T02:43:54.499Z,17.80
2022-09-27T02:46:45.120Z,17.88
2022-09-27T02:49:22.280Z,17.79
2022-09-27T02:52:11.157Z,17.94
2022-09-27T02:54:42.297Z,18.02
2022-09-27T02:57:35.206Z,17.98
2022-09-27T03:00:32.793Z,17.95
2022-09-27T03:03:26.475Z,18.06
2022-09-27T03:06:03.810Z,18.03
2022-09-27T03:08:31.852Z,18.04
2022-09-27T03:11:00.985Z,18.05
2022-09-27T03:13:29.208Z,18.04
2022-09-27T03:16:01.820Z,17.86
2022-09-27T03:18:38.323Z,17.97
2022-09-27T03:21:26.480Z,18.03
2022-09-27T03:23:54.638Z,18.01
2022-09-27T03:26:22.865Z,18.11
2022-09-27T03:28:50.914Z,18.01
2022-09-27T03:31:19.126Z,18.06
2022-09-27T03:34:04.239Z,18.05
2022-09-27T03:36:33.702Z,18.07
2022-09-27T03:39:01.926Z,18.01
2022-09-27T03:41:31.060Z,17.87
2022-09-27T03:43:59.894Z,18.02
2022-09-27T03:46:28.252Z,17.92
2022-09-27T03:48:56.786Z,17.89
2022-09-27T03:51:24.767Z,17.73
2022-09-27T03:53:54.256Z,17.88
2022-09-27T03:56:25.056Z,17.79
2022-09-27T03:59:01.015Z,17.75
2022-09-27T04:01:30.290Z,17.94
2022-09-27T04:04:11.408Z,18.00
2022-09-27T04:06:40.095Z,17.99
2022-09-27T04:09:09.576Z,18.02
2022-09-27T04:11:56.284Z,17.97
2022-09-27T04:14:25.626Z,18.02
2022-09-27T04:17:17.415Z,18.00
2022-09-27T04:20:08.832Z,17.88
2022-09-27T04:22:40.672Z,17.83
2022-09-27T04:25:11.213Z,17.84
2022-09-27T04:27:43.291Z,17.94
2022-09-27T04:30:12.278Z,17.83
2022-09-27T04:32:58.590Z,17.74
2022-09-27T04:36:08.174Z,17.72
2022-09-27T04:38:39.996Z,17.71
2022-09-27T04:41:10.548Z,17.51
2022-09-27T04:43:41.292Z,17.64
2022-09-27T04:46:09.522Z,17.58
2022-09-27T04:48:38.307Z,17.84
2022-09-27T04:51:07.451Z,17.69
2022-09-27T04:53:35.897Z,17.81
2022-09-27T04:56:06.171Z,17.66
2022-09-27T04:58:36.560Z,17.79
2022-09-27T05:01:04.898Z,17.82
2022-09-27T05:03:44.194Z,17.94
2022-09-27T05:06:16.713Z,18.01
2022-09-27T05:08:45.994Z,17.88
2022-09-27T05:11:34.283Z,17.81
2022-09-27T05:14:21.256Z,17.78
2022-09-27T05:17:09.972Z,17.68
2022-09-27T05:20:04.016Z,17.78
2022-09-27T05:22:51.641Z,17.68
2022-09-27T05:25:19.770Z,17.75
2022-09-27T05:27:48.247Z,17.81
2022-09-27T05:30:18.128Z,17.89
2022-09-27T05:32:53.237Z,17.92
2022-09-27T05:35:27.508Z,17.97
2022-09-27T05:37:58.339Z,17.99
2022-09-27T05:40:44.678Z,18.12
2022-09-27T05:43:13.028Z,18.12
2022-09-27T05:45:43.118Z,18.18
2022-09-27T05:48:14.132Z,18.17
2022-09-27T05:50:53.189Z,17.86
2022-09-27T05:53:21.323Z,18.04
2022-09-27T05:55:49.801Z,18.00
2022-09-27T05:58:21.080Z,18.05
2022-09-27T06:01:08.009Z,18.06
2022-09-27T06:04:10.389Z,18.20
2022-09-27T06:06:38.473Z,18.10
2022-09-27T06:09:11.492Z,18.11
2022-09-27T06:11:43.038Z,18.05
2022-09-27T06:14:14.456Z,18.06
2022-09-27T06:17:01.987Z,18.12
2022-09-27T06:19:36.293Z,18.22
2022-09-27T06:22:04.550Z,18.33
2022-09-27T06:24:53.076Z,18.20
2022-09-27T06:27:26.358Z,18.27
2022-09-27T06:30:06.584Z,18.19
2022-09-27T06:32:50.349Z,18.29
2022-09-27T06:35:25.275Z,18.23
2022-09-27T06:37:53.775Z,18.21
2022-09-27T06:40:22.530Z,18.13
2022-09-27T06:43:03.339Z,18.07
2022-09-27T06:45:54.965Z,18.25
2022-09-27T06:48:34.414Z,18.28
2022-09-27T06:51:13.985Z,18.30
2022-09-27T06:53:42.826Z,18.27
2022-09-27T06:56:11.205Z,18.36
2022-09-27T06:59:15.861Z,18.41
2022-09-27T07:01:44.170Z,18.26
2022-09-27T07:04:32.943Z,18.08
2022-09-27T07:07:06.224Z,18.38
2022-09-27T07:09:41.607Z,18.49
2022-09-27T07:12:09.655Z,18.48
2022-09-27T07:14:38.195Z,18.61
2022-09-27T07:17:06.715Z,18.63
2022-09-27T07:19:40.402Z,18.71
2022-09-27T07:22:09.700Z,18.60
2022-09-27T07:24:38.131Z,18.71
2022-09-27T07:27:09.188Z,18.73
2022-09-27T07:29:38.620Z,18.83
2022-09-27T07:32:06.710Z,18.81
2022-09-27T07:34:34.995Z,18.77
2022-09-27T07:37:06.538Z,18.83
2022-09-27T07:39:39.737Z,18.95
2022-09-27T07:42:08.341Z,18.91
2022-09-27T07:44:40.255Z,18.88
2022-09-27T07:47:20.222Z,18.98
2022-09-27T07:50:10.879Z,19.19
2022-09-27T07:53:01.264Z,19.27
2022-09-27T07:55:54.070Z,19.21
2022-09-27T07:58:25.810Z,19.22
2022-09-27T08:01:16.288Z,19.22
2022-09-27T08:03:45.662Z,19.02
2022-09-27T08:06:18.007Z,19.08
2022-09-27T08:08:48.748Z,19.06
2022-09-27T08:11:21.944Z,19.12
2022-09-27T08:13:53.081Z,18.84
2022-09-27T08:16:27.126Z,18.81
2022-09-27T08:19:15.193Z,18.72
2022-09-27T08:22:02.506Z,18.73
2022-09-27T08:24:47.280Z,18.85
2022-09-27T08:27:23.852Z,18.86
2022-09-27T08:29:58.127Z,18.86
2022-09-27T08:32:26.390Z,18.90
2022-09-27T08:34:54.671Z,18.93
2022-09-27T08:37:30.200Z,18.87
2022-09-27T08:40:00.006Z,18.98
2022-09-27T08:42:35.455Z,18.97
2022-09-27T08:45:08.373Z,18.79
2022-09-27T08:47:38.611Z,18.90
2022-09-27T08:50:19.404Z,18.89
2022-09-27T08:52:54.461Z,18.75
2022-09-27T08:55:29.687Z,19.07
2022-09-27T08:58:02.124Z,19.07
2022-09-27T09:00:35.695Z,19.19
2022-09-27T09:03:05.147Z,19.07
2022-09-27T09:05:36.598Z,19.17
2022-09-27T09:08:20.422Z,19.23
2022-09-27T09:11:11.346Z,19.20
2022-09-27T09:14:04.227Z,19.18
2022-09-27T09:16:42.514Z,19.23
2022-09-27T09:19:31.810Z,19.39
2022-09-27T09:22:32.131Z,19.51
2022-09-27T09:25:11.203Z,19.50
2022-09-27T09:27:43.789Z,19.54
2022-09-27T09:30:22.683Z,19.58
2022-09-27T09:33:17.687Z,19.64
2022-09-27T09:35:49.551Z,19.57
2022-09-27T09:38:22.394Z,19.59
2022-09-27T09:40:53.250Z,19.51
2022-09-27T09:43:27.714Z,19.56
2022-09-27T09:45:58.973Z,19.62
2022-09-27T09:48:31.947Z,19.58
2022-09-27T09:51:02.584Z,19.68
2022-09-27T09:53:38.153Z,19.86
2022-09-27T09:56:13.386Z,19.98
2022-09-27T09:58:45.215Z,20.03
2022-09-27T10:01:23.727Z,20.13
2022-09-27T10:03:52.046Z,20.38
2022-09-27T10:06:20.696Z,20.22
2022-09-27T10:08:50.124Z,20.29
2022-09-27T10:11:32.863Z,20.32
2022-09-27T10:14:31.735Z,20.32
2022-09-27T10:17:05.641Z,20.31
2022-09-27T10:19:38.020Z,20.35
2022-09-27T10:22:13.556Z,20.39
2022-09-27T10:24:56.194Z,20.43
2022-09-27T10:27:45.976Z,20.35
2022-09-27T10:30:25.983Z,20.24
2022-09-27T10:32:56.900Z,20.37
2022-09-27T10:35:43.685Z,20.21
2022-09-27T10:38:23.308Z,20.17
2022-09-27T10:40:56.779Z,20.25
2022-09-27T10:43:33.058Z,20.35
2022-09-27T10:46:23.734Z,20.41
2022-09-27T10:49:12.976Z,20.41
2022-09-27T10:51:44.132Z,20.44
2022-09-27T10:54:21.513Z,20.49
2022-09-27T10:57:02.487Z,20.54
2022-09-27T10:59:34.184Z,20.55
2022-09-27T11:02:08.352Z,20.48
2022-09-27T11:04:42.671Z,19.99
2022-09-27T11:07:17.046Z,20.02
2022-09-27T11:09:56.148Z,20.27
2022-09-27T11:12:27.415Z,20.24
2022-09-27T11:15:00.642Z,20.19
2022-09-27T11:17:35.916Z,20.22
2022-09-27T11:20:18.249Z,20.07
2022-09-27T11:23:21.452Z,20.00
2022-09-27T11:26:08.534Z,19.81
2022-09-27T11:28:43.484Z,19.69
2022-09-27T11:31:35.664Z,19.51
2022-09-27T11:34:32.968Z,19.65
2022-09-27T11:37:16.884Z,19.69
2022-09-27T11:39:58.409Z,19.37
2022-09-27T11:42:40.185Z,19.50
2022-09-27T11:45:56.584Z,19.61
2022-09-27T11:48:39.902Z,19.58
2022-09-27T11:51:28.020Z,19.68
2022-09-27T11:54:07.781Z,19.41
2022-09-27T11:56:44.725Z,19.29
2022-09-27T11:59:42.932Z,19.35
2022-09-27T12:02:22.454Z,19.17
2022-09-27T12:05:11.130Z,19.13
2022-09-27T12:07:49.646Z,19.07
2022-09-27T12:10:18.683Z,18.93
2022-09-27T12:12:51.706Z,18.85
2022-09-27T12:15:26.917Z,18.90
2022-09-27T12:17:58.941Z,18.84
2022-09-27T12:20:37.886Z,18.59
2022-09-27T12:23:14.237Z,18.44
2022-09-27T12:26:04.036Z,18.24
2022-09-27T12:28:41.640Z,18.32
2022-09-27T12:31:28.873Z,18.28
2022-09-27T12:34:05.497Z,18.21
2022-09-27T12:36:38.321Z,18.34
2022-09-27T12:39:14.904Z,18.33
2022-09-27T12:41:51.824Z,18.26
2022-09-27T12:44:35.985Z,18.28
2022-09-27T12:47:07.075Z,18.22
2022-09-27T12:49:43.837Z,18.19
2022-09-27T12:52:14.385Z,18.41
2022-09-27T12:55:03.625Z,18.55
2022-09-27T12:57:57.099Z,18.60
2022-09-27T13:00:36.561Z,18.67
2022-09-27T13:06:36.976Z,18.44
2022-09-27T13:09:56.795Z,18.57
2022-09-27T13:12:50.937Z,18.53
2022-09-27T13:15:25.663Z,18.47
2022-09-27T13:18:09.412Z,18.69
2022-09-27T13:20:50.239Z,18.74
2022-09-27T13:23:54.719Z,18.70
2022-09-27T13:26:52.621Z,18.74
2022-09-27T13:29:41.908Z,18.83
2022-09-27T13:32:29.332Z,18.77
2022-09-27T13:35:21.161Z,18.64
2022-09-27T13:38:26.529Z,18.56
2022-09-27T13:41:22.515Z,18.51
2022-09-27T13:44:13.131Z,18.38
2022-09-27T13:47:13.060Z,18.26
2022-09-27T13:50:22.543Z,18.22
2022-09-27T13:53:17.065Z,18.09
2022-09-27T13:55:51.971Z,18.04
2022-09-27T13:59:01.237Z,17.91
2022-09-27T14:02:27.029Z,18.01
2022-09-27T14:05:09.318Z,18.10
2022-09-27T14:07:49.390Z,17.97
2022-09-27T14:13:27.040Z,17.92
2022-09-27T14:16:21.722Z,17.81
2022-09-27T14:19:19.896Z,18.02
2022-09-27T14:22:23.968Z,18.20
2022-09-27T14:25:29.904Z,18.19
2022-09-27T14:28:27.222Z,18.01
2022-09-27T14:31:38.123Z,18.19
2022-09-27T14:34:59.514Z,18.34
2022-09-27T14:37:43.314Z,18.17
2022-09-27T14:40:28.149Z,18.12
2022-09-27T14:43:09.361Z,18.01
2022-09-27T14:45:42.681Z,18.11
2022-09-27T14:48:24.918Z,18.17
2022-09-27T14:51:31.496Z,18.08
2022-09-27T14:54:11.918Z,17.92
2022-09-27T14:57:09.872Z,17.78
2022-09-27T15:00:36.472Z,17.68
2022-09-27T15:03:20.715Z,17.64
2022-09-27T15:05:59.736Z,17.70
2022-09-27T15:08:59.809Z,17.66
2022-09-27T15:11:35.355Z,17.68
2022-09-27T15:14:22.163Z,17.60
2022-09-27T15:17:01.864Z,17.68
2022-09-27T15:19:46.276Z,17.53
2022-09-27T15:25:37.135Z,17.66
2022-09-27T15:28:08.768Z,17.53
2022-09-27T15:30:39.853Z,17.55
2022-09-27T15:33:33.047Z,17.45
2022-09-27T15:36:10.989Z,17.21
2022-09-27T15:38:50.777Z,17.36
2022-09-27T15:42:13.298Z,17.00
2022-09-27T15:45:01.349Z,17.22
2022-09-27T15:48:09.771Z,17.36
2022-09-27T15:50:52.396Z,17.24
2022-09-27T15:53:57.705Z,17.43
2022-09-27T15:56:33.846Z,17.19
2022-09-27T15:59:29.403Z,17.25
2022-09-27T16:02:08.592Z,17.33
2022-09-27T16:04:44.960Z,17.49
2022-09-27T16:07:16.516Z,17.48
2022-09-27T16:09:52.275Z,17.42
2022-09-27T16:12:24.656Z,17.51
2022-09-27T16:14:57.149Z,17.53
2022-09-27T16:17:28.162Z,17.54
2022-09-27T16:20:07.573Z,17.58
2022-09-27T16:22:49.795Z,17.62
2022-09-27T16:25:29.595Z,17.56
2022-09-27T16:28:04.332Z,17.40
2022-09-27T16:30:34.564Z,17.50
2022-09-27T16:33:10.408Z,17.56
2022-09-27T16:35:44.771Z,17.48
2022-09-27T16:38:20.007Z,17.48
2022-09-27T16:40:51.601Z,17.52
2022-09-27T16:43:23.441Z,17.58
2022-09-27T16:46:12.329Z,17.45
2022-09-27T16:48:54.019Z,17.49
2022-09-27T17:04:29.060Z,17.37
2022-09-27T17:07:09.032Z,17.49
2022-09-27T17:09:46.663Z,17.62
2022-09-27T17:12:23.726Z,17.58
2022-09-27T17:14:56.074Z,17.66
2022-09-27T17:17:25.871Z,17.53
2022-09-27T17:19:55.310Z,17.73
2022-09-27T17:22:23.403Z,17.60
2022-09-27T17:24:53.021Z,17.74
2022-09-27T17:27:25.738Z,17.75
2022-09-27T17:29:54.045Z,17.79
2022-09-27T17:32:24.237Z,17.80
2022-09-27T17:34:52.448Z,17.70
2022-09-27T17:37:24.821Z,17.85
2022-09-27T17:39:52.879Z,17.83
2022-09-27T17:42:20.955Z,17.90
2022-09-27T17:44:48.995Z,17.92
2022-09-27T17:47:34.661Z,17.94
2022-09-27T17:50:19.901Z,17.91
2022-09-27T17:52:49.585Z,17.89
2022-09-27T17:55:17.782Z,17.93
2022-09-27T17:57:47.952Z,17.92
2022-09-27T18:00:16.482Z,17.97
2022-09-27T18:02:45.059Z,17.93
2022-09-27T18:05:13.231Z,18.03
2022-09-27T18:07:43.730Z,17.99
2022-09-27T18:10:13.309Z,17.70
2022-09-27T18:12:43.139Z,17.78
2022-09-27T18:15:11.303Z,17.80
2022-09-27T18:17:39.321Z,17.76
2022-09-27T18:20:08.151Z,17.70
2022-09-27T18:22:36.553Z,17.80
2022-09-27T18:25:05.475Z,17.77
2022-09-27T18:27:34.880Z,17.79
2022-09-27T18:30:03.463Z,17.79
2022-09-27T18:32:31.674Z,17.88
2022-09-27T18:34:59.757Z,17.86
2022-09-27T18:37:28.668Z,17.77
2022-09-27T18:39:56.712Z,17.69
2022-09-27T18:42:26.074Z,17.78
2022-09-27T18:44:55.514Z,17.84
2022-09-27T18:47:24.204Z,17.87
2022-09-27T18:49:52.304Z,17.93
2022-09-27T18:52:20.579Z,17.90
2022-09-27T18:54:49.239Z,18.00
2022-09-27T18:57:17.315Z,18.01
2022-09-27T18:59:48.153Z,17.98
2022-09-27T19:02:17.692Z,17.89
2022-09-27T19:04:45.753Z,17.93
2022-09-27T19:07:13.854Z,17.83
2022-09-27T19:09:41.862Z,17.86
2022-09-27T19:12:10.434Z,17.89
2022-09-27T19:14:39.866Z,17.83
2022-09-27T19:17:07.920Z,17.79
2022-09-27T19:19:37.375Z,17.81
2022-09-27T19:22:05.610Z,17.82
2022-09-27T19:24:33.652Z,17.81
2022-09-27T19:27:01.691Z,17.83
2022-09-27T19:29:29.770Z,17.88
2022-09-27T19:31:57.866Z,17.85
2022-09-27T19:34:26.106Z,17.90
2022-09-27T19:36:57.887Z,17.86
2022-09-27T19:39:26.113Z,17.92
2022-09-27T19:41:56.563Z,17.89
2022-09-27T19:44:26.059Z,17.80
2022-09-27T19:46:54.137Z,17.85
2022-09-27T19:49:22.189Z,17.83
2022-09-27T19:51:52.094Z,17.74
2022-09-27T19:54:22.441Z,17.74
2022-09-27T19:56:50.683Z,17.77
2022-09-27T19:59:18.868Z,17.77
2022-09-27T20:01:47.059Z,17.75
2022-09-27T20:04:15.214Z,17.77
2022-09-27T20:06:43.396Z,17.80
2022-09-27T20:09:11.431Z,17.79
2022-09-27T20:11:42.115Z,17.83
2022-09-27T20:14:10.375Z,17.68
2022-09-27T20:16:41.395Z,17.90
2022-09-27T20:19:10.437Z,17.89
2022-09-27T20:21:38.713Z,17.93
2022-09-27T20:24:07.120Z,17.90
2022-09-27T20:26:36.571Z,17.90
2022-09-27T20:29:06.879Z,17.89
2022-09-27T20:31:37.107Z,17.88
2022-09-27T20:34:05.282Z,17.86
2022-09-27T20:36:34.109Z,17.88
2022-09-27T20:39:03.539Z,17.88
2022-09-27T20:41:32.512Z,17.96
2022-09-27T20:44:03.364Z,17.92
2022-09-27T20:46:32.986Z,17.92
2022-09-27T20:49:03.558Z,17.83
2022-09-27T20:51:33.344Z,17.92
2022-09-27T20:54:01.430Z,17.92
2022-09-27T20:56:30.458Z,17.89
2022-09-27T20:58:59.427Z,17.98
2022-09-27T21:01:28.240Z,18.00
2022-09-27T21:03:58.411Z,18.01
2022-09-27T21:06:27.306Z,18.01
2022-09-27T21:08:55.426Z,18.00
2022-09-27T21:11:23.807Z,17.95
2022-09-27T21:13:52.481Z,17.86
2022-09-27T21:16:22.366Z,18.01
2022-09-27T21:18:51.261Z,17.98
2022-09-27T21:21:20.777Z,17.97
2022-09-27T21:23:49.157Z,17.99
2022-09-27T21:26:18.162Z,17.90
2022-09-27T21:28:46.829Z,18.03
2022-09-27T21:31:20.116Z,18.04
2022-09-27T21:33:50.412Z,18.08
2022-09-27T21:36:18.466Z,18.07
2022-09-27T21:38:47.947Z,18.16
2022-09-27T21:41:16.502Z,18.17
2022-09-27T21:43:45.339Z,18.18
2022-09-27T21:46:14.125Z,18.21
2022-09-27T21:48:43.602Z,18.13
2022-09-27T21:51:13.037Z,18.01
2022-09-27T21:53:41.807Z,18.06
2022-09-27T21:56:11.767Z,18.06
2022-09-27T21:58:40.608Z,17.98
2022-09-27T22:01:09.720Z,18.06
2022-09-27T22:03:37.991Z,18.08
2022-09-27T22:06:06.723Z,18.05
2022-09-27T22:08:34.743Z,18.06
2022-09-27T22:11:02.751Z,18.02
2022-09-27T22:13:32.622Z,18.05
2022-09-27T22:16:04.014Z,18.08
2022-09-27T22:18:34.812Z,18.06
2022-09-27T22:21:04.074Z,18.07
2022-09-27T22:23:32.192Z,18.03
2022-09-27T22:26:00.349Z,18.08
2022-09-27T22:28:28.379Z,18.04
2022-09-27T22:30:57.786Z,18.08
2022-09-27T22:33:25.835Z,18.01
2022-09-27T22:35:53.922Z,18.11
2022-09-27T22:38:21.990Z,18.08
2022-09-27T22:40:55.114Z,18.07
2022-09-27T22:43:23.334Z,18.08
2022-09-27T22:45:51.462Z,17.94
2022-09-27T22:48:20.921Z,18.07
2022-09-27T22:50:48.944Z,18.10
2022-09-27T22:53:19.375Z,18.12
2022-09-27T22:56:01.859Z,18.08
2022-09-27T22:58:32.113Z,18.04
2022-09-27T23:01:00.322Z,17.99
2022-09-27T23:03:30.175Z,17.98
2022-09-27T23:06:03.095Z,17.96
2022-09-27T23:08:35.279Z,17.96
2022-09-27T23:11:04.552Z,18.04
2022-09-27T23:13:33.511Z,18.04
2022-09-27T23:16:02.837Z,18.02
2022-09-27T23:18:33.291Z,17.87
2022-09-27T23:21:03.599Z,17.99
2022-09-27T23:23:31.982Z,17.99
2022-09-27T23:26:00.995Z,17.99
2022-09-27T23:28:29.167Z,18.02
2022-09-27T23:30:57.331Z,18.04
2022-09-27T23:33:25.413Z,18.07
2022-09-27T23:35:54.835Z,18.08
2022-09-27T23:38:23.022Z,18.08
2022-09-27T23:40:51.203Z,18.08
2022-09-27T23:43:19.438Z,18.03
2022-09-27T23:45:47.457Z,17.99
2022-09-27T23:48:15.501Z,17.95
2022-09-27T23:50:44.231Z,17.90
2022-09-27T23:53:13.686Z,17.97
2022-09-27T23:55:41.738Z,17.93
2022-09-27T23:58:10.624Z,17.97
